Time;durP1;ratioP1;P1;durP2;ratioP2;P2;SDS_P1;SDS_P2;PMS_P1;PMS_P2;Temp;Humidity;BMP_temperature;BMP_pressure;BME280_temperature;BME280_humidity;BME280_pressure;Samples;Min_cycle;Max_cycle;Signal;HPM_P1;HPM_P2
2022/11/12 00:00:59;;;;;;;8.48;3.10;;;;;;;8.87;100.00;99469.69;5006085;28;20042;-44
2022/11/12 00:03:43;;;;;;;3.55;2.53;;;;;;;8.50;100.00;99412.94;5007261;28;20065;-51
2022/11/12 00:06:28;;;;;;;8.70;3.42;;;;;;;8.70;100.00;99445.16;4993176;28;20038;-50
2022/11/12 00:09:12;;;;;;;6.45;3.28;;;;;;;8.56;100.00;99442.16;5004552;28;20069;-50
2022/11/12 00:11:56;;;;;;;6.85;3.83;;;;;;;8.63;100.00;99422.94;5007213;28;20040;-45
2022/11/12 00:14:40;;;;;;;6.43;3.72;;;;;;;8.57;100.00;99416.22;5007336;28;20045;-45
2022/11/12 00:17:25;;;;;;;5.85;3.47;;;;;;;8.56;100.00;99418.84;4997281;28;20034;-47
2022/11/12 00:20:09;;;;;;;6.15;3.65;;;;;;;8.56;100.00;99419.69;5000188;28;20140;-46
2022/11/12 00:22:54;;;;;;;12.25;4.80;;;;;;;8.60;100.00;99425.63;5007969;28;20068;-49
2022/11/12 00:25:38;;;;;;;5.72;3.63;;;;;;;8.60;100.00;99426.47;5008908;28;20095;-47
2022/11/12 00:28:22;;;;;;;8.32;5.03;;;;;;;8.58;100.00;99425.69;5008129;28;20034;-45
2022/11/12 00:31:09;;;;;;;6.47;3.97;;;;;;;8.62;100.00;99429.88;4990763;28;20045;-44
2022/11/12 00:33:53;;;;;;;8.43;3.53;;;;;;;8.67;100.00;99440.94;4989981;28;20140;-44
2022/11/12 00:36:38;;;;;;;7.70;3.50;;;;;;;8.65;100.00;99436.69;5023071;28;20049;-45
2022/11/12 00:39:22;;;;;;;8.38;4.22;;;;;;;8.52;100.00;99414.66;5010080;28;20116;-48
2022/11/12 00:42:07;;;;;;;8.35;3.78;;;;;;;8.44;100.00;99420.03;5006164;28;20529;-47
2022/11/12 00:44:52;;;;;;;11.73;5.03;;;;;;;8.58;100.00;99435.19;5020285;28;20156;-46
2022/11/12 00:47:36;;;;;;;11.30;4.80;;;;;;;8.43;100.00;99416.59;4993739;28;20112;-46
2022/11/12 00:50:21;;;;;;;5.60;3.05;;;;;;;8.57;100.00;99429.16;4999307;28;20040;-46
2022/11/12 00:53:05;;;;;;;9.15;4.43;;;;;;;8.61;100.00;99441.13;5025074;28;20048;-46
2022/11/12 00:55:49;;;;;;;8.82;4.88;;;;;;;8.61;100.00;99445.47;4997687;28;20061;-47
2022/11/12 00:58:35;;;;;;;6.70;4.93;;;;;;;8.66;100.00;99439.25;5012129;28;20046;-45
2022/11/12 01:01:19;;;;;;;6.03;3.50;;;;;;;8.60;100.00;99420.44;5010522;28;20401;-44
2022/11/12 01:04:04;;;;;;;13.55;6.20;;;;;;;8.62;100.00;99416.06;5011412;28;20041;-49
2022/11/12 01:06:48;;;;;;;9.20;4.63;;;;;;;8.47;100.00;99392.34;4995020;28;20050;-46
2022/11/12 01:09:33;;;;;;;12.02;6.20;;;;;;;8.56;100.00;99414.50;5008631;28;20051;-43
2022/11/12 01:12:17;;;;;;;6.90;4.45;;;;;;;8.59;100.00;99401.44;5011610;28;20041;-44
2022/11/12 01:15:01;;;;;;;12.27;5.72;;;;;;;8.59;100.00;99404.03;5011666;28;20152;-45
2022/11/12 01:17:45;;;;;;;11.35;5.80;;;;;;;8.61;100.00;99401.41;5010527;28;20038;-47
2022/11/12 01:20:29;;;;;;;5.97;3.92;;;;;;;8.61;100.00;99396.22;5026198;28;20433;-45
2022/11/12 01:23:14;;;;;;;3.22;2.60;;;;;;;8.62;100.00;99396.19;5011628;28;20521;-46
2022/11/12 01:26:03;;;;;;;9.30;4.68;;;;;;;8.61;100.00;99396.22;5010693;28;20045;-47
2022/11/12 01:28:51;;;;;;;;;;;;;;;8.66;100.00;99394.34;5018354;28;20046;-47
2022/11/12 01:31:37;;;;;;;12.25;5.13;;;;;;;8.65;100.00;99390.03;5011448;28;20389;-45
2022/11/12 01:34:21;;;;;;;10.48;5.22;;;;;;;8.63;100.00;99392.72;5009486;28;20052;-45
2022/11/12 01:37:06;;;;;;;11.45;5.22;;;;;;;8.55;100.00;99361.00;5010701;28;20046;-43
2022/11/12 01:39:50;;;;;;;10.02;4.75;;;;;;;8.52;100.00;99363.69;5021722;28;20040;-47
2022/11/12 01:42:37;;;;;;;9.05;4.85;;;;;;;8.55;100.00;99349.78;5010432;28;20081;-50
2022/11/12 01:45:22;;;;;;;13.70;5.75;;;;;;;8.70;100.00;99389.00;4991390;28;20046;-46
2022/11/12 01:48:14;;;;;;;7.93;5.10;;;;;;;8.59;100.00;99359.13;5008468;28;20096;-47
2022/11/12 01:50:59;;;;;;;8.52;4.63;;;;;;;8.73;100.00;99378.56;5012655;28;20565;-45
2022/11/12 01:53:47;;;;;;;9.20;4.90;;;;;;;8.73;100.00;99378.56;5007012;28;20034;-50
2022/11/12 01:56:31;;;;;;;9.70;5.05;;;;;;;8.73;100.00;99381.16;5008288;28;20081;-43
2022/11/12 01:59:28;;;;;;;4.22;2.65;;;;;;;8.70;100.00;99370.88;5008664;28;20046;-43
2022/11/12 02:02:13;;;;;;;13.00;5.47;;;;;;;8.66;100.00;99373.59;5009048;28;20045;-47
2022/11/12 02:04:58;;;;;;;5.80;3.80;;;;;;;8.63;100.00;99361.59;5009682;28;20056;-46
2022/11/12 02:07:44;;;;;;;9.70;5.95;;;;;;;8.56;100.00;99339.38;5010185;28;20030;-48
2022/11/12 02:10:28;;;;;;;8.23;3.88;;;;;;;8.70;100.00;99344.94;5012815;28;20037;-47
2022/11/12 02:16:16;;;;;;;9.93;3.88;;;;;;;8.71;100.00;99356.16;5010026;28;20088;-48
2022/11/12 02:19:02;;;;;;;11.35;5.20;;;;;;;8.71;100.00;99351.84;5009062;28;20049;-48
2022/11/12 02:21:46;;;;;;;10.93;5.47;;;;;;;8.71;100.00;99336.28;5000464;28;20065;-45
2022/11/12 02:24:32;;;;;;;12.40;5.60;;;;;;;8.70;100.00;99332.00;5007444;28;20429;-47
2022/11/12 02:27:16;;;;;;;8.52;4.72;;;;;;;8.56;100.00;99321.22;5017080;28;20053;-45
2022/11/12 02:30:01;;;;;;;10.23;5.47;;;;;;;8.75;100.00;99329.25;4996096;28;20574;-44
2022/11/12 02:32:45;;;;;;;5.85;2.63;;;;;;;8.77;100.00;99330.91;5010262;28;20073;-46
2022/11/12 02:35:30;;;;;;;7.40;3.70;;;;;;;8.63;100.00;99314.97;5000236;28;20145;-47
2022/11/12 02:38:14;;;;;;;9.05;4.97;;;;;;;8.77;100.00;99330.06;4983532;28;20049;-47
2022/11/12 02:40:59;;;;;;;9.48;5.00;;;;;;;8.82;100.00;99320.38;5023949;28;20417;-46
2022/11/12 02:43:44;;;;;;;6.82;3.72;;;;;;;8.70;100.00;99305.22;5011143;28;20041;-50
2022/11/12 02:46:29;;;;;;;9.43;4.60;;;;;;;8.81;100.00;99321.28;5008787;28;20550;-43
2022/11/12 02:49:13;;;;;;;6.30;3.75;;;;;;;8.81;100.00;99314.34;5011734;28;20066;-47
2022/11/12 02:51:58;;;;;;;10.93;4.78;;;;;;;8.84;100.00;99309.09;5010934;28;20041;-50
2022/11/12 02:54:42;;;;;;;9.45;4.43;;;;;;;8.68;100.00;99294.09;5019479;28;20096;-47
2022/11/12 02:57:28;;;;;;;7.97;4.70;;;;;;;8.90;100.00;99310.59;5011532;28;20430;-50
2022/11/12 03:00:13;;;;;;;6.85;4.32;;;;;;;8.95;100.00;99324.25;5007661;28;20128;-46
2022/11/12 03:03:00;;;;;;;4.43;2.95;;;;;;;8.99;100.00;99330.19;5008681;28;20060;-51
2022/11/12 03:05:45;;;;;;;6.20;3.80;;;;;;;9.01;100.00;99331.81;4989661;28;20121;-45
2022/11/12 03:08:29;;;;;;;4.53;2.78;;;;;;;8.97;100.00;99322.47;5003240;28;20050;-46
2022/11/12 03:11:16;;;;;;;7.70;4.30;;;;;;;9.05;100.00;99310.09;5008513;28;20137;-45
2022/11/12 03:14:01;;;;;;;5.28;3.30;;;;;;;9.10;100.00;99321.16;5009556;28;20037;-45
2022/11/12 03:16:45;;;;;;;6.78;3.90;;;;;;;8.98;100.00;99297.38;5006329;28;20057;-46
2022/11/12 03:19:30;;;;;;;5.00;3.22;;;;;;;9.13;100.00;99310.66;4992479;28;20049;-47
2022/11/12 03:22:14;;;;;;;4.35;3.00;;;;;;;9.02;100.00;99281.66;5017036;28;20108;-45
2022/11/12 03:24:59;;;;;;;4.20;2.42;;;;;;;9.13;100.00;99289.06;4996337;28;20038;-46
2022/11/12 03:27:43;;;;;;;7.70;4.10;;;;;;;9.14;100.00;99272.63;5015599;28;20121;-47
2022/11/12 03:30:30;;;;;;;5.07;2.05;;;;;;;9.05;100.00;99263.44;5022969;28;20555;-46
2022/11/12 03:33:16;;;;;;;6.43;4.05;;;;;;;9.17;100.00;99285.47;5010200;28;20058;-44
2022/11/12 03:36:00;;;;;;;5.97;3.25;;;;;;;9.18;100.00;99290.63;5009374;28;20077;-49
2022/11/12 03:38:45;;;;;;;4.13;3.10;;;;;;;9.19;100.00;99284.53;5009165;28;20041;-46
2022/11/12 03:41:29;;;;;;;7.13;4.00;;;;;;;9.09;100.00;99266.75;5008544;28;20045;-46
2022/11/12 03:44:14;;;;;;;6.57;3.80;;;;;;;9.25;100.00;99299.03;5008442;28;20046;-49
2022/11/12 03:46:58;;;;;;;9.93;3.63;;;;;;;9.24;100.00;99289.56;5008470;28;20065;-46
2022/11/12 03:49:43;;;;;;;8.40;4.05;;;;;;;9.28;100.00;99291.13;5008171;28;20137;-45
2022/11/12 03:52:29;;;;;;;7.30;3.47;;;;;;;9.16;100.00;99274.25;4993110;28;20046;-49
2022/11/12 03:55:15;;;;;;;12.43;5.53;;;;;;;9.30;100.00;99295.38;5008703;28;20038;-45
2022/11/12 03:57:59;;;;;;;5.43;3.63;;;;;;;9.28;100.00;99275.56;5008992;28;20057;-49
2022/11/12 04:00:44;;;;;;;8.77;4.65;;;;;;;9.29;100.00;99278.13;5007936;28;20140;-45
2022/11/12 04:03:28;;;;;;;6.55;3.20;;;;;;;9.25;100.00;99263.56;5006814;28;20073;-46
2022/11/12 04:09:16;;;;;;;6.68;3.63;;;;;;;9.27;100.00;99269.53;5005857;28;20464;-47
2022/11/12 04:13:26;;;;;;;5.68;2.92;;;;;;;9.13;100.00;99232.88;4992382;28;20052;-45
2022/11/12 04:15:05;;;;;;;6.38;3.75;;;;;;;9.25;100.00;99240.22;5007971;28;20501;-47
2022/11/12 04:23:55;;;;;;;6.57;2.95;;;;;;;9.38;100.00;99250.13;5007973;28;20163;-47
2022/11/12 04:26:40;;;;;;;5.13;3.58;;;;;;;9.30;100.00;99237.47;5006623;28;20075;-46
2022/11/12 04:32:30;;;;;;;3.65;2.88;;;;;;;9.41;100.00;99256.09;4996342;28;20050;-48
2022/11/12 04:35:14;;;;;;;11.68;2.92;;;;;;;9.43;100.00;99245.63;5024525;28;20038;-46
2022/11/12 04:37:59;;;;;;;5.38;3.60;;;;;;;9.34;100.00;99224.31;5007016;28;20045;-47
2022/11/12 04:46:50;;;;;;;5.00;3.10;;;;;;;9.49;100.00;99235.03;5009483;28;20050;-47
2022/11/12 04:49:34;;;;;;;5.47;3.20;;;;;;;9.39;100.00;99226.75;5008513;28;20041;-48
2022/11/12 04:52:19;;;;;;;8.07;3.05;;;;;;;9.37;100.00;99217.34;5006351;28;20076;-48
2022/11/12 04:55:04;;;;;;;4.70;2.38;;;;;;;9.50;100.00;99239.31;4989612;28;20133;-44
2022/11/12 04:57:49;;;;;;;5.68;3.67;;;;;;;9.26;100.00;99191.78;4998339;28;20579;-47
2022/11/12 05:00:33;;;;;;;6.20;3.53;;;;;;;9.38;100.00;99209.47;5008496;28;20048;-43
2022/11/12 05:03:17;;;;;;;2.53;1.77;;;;;;;9.61;100.00;99231.97;5002947;28;20042;-44
2022/11/12 05:06:49;;;;;;;5.18;3.17;;;;;;;9.61;100.00;99238.03;5008604;28;20100;-50
2022/11/12 05:09:08;;;;;;;3.20;1.85;;;;;;;9.47;100.00;99205.72;5007586;28;20169;-45
2022/11/12 05:11:56;;;;;;;3.00;1.60;;;;;;;9.48;100.00;99197.84;4989675;28;20101;-47
2022/11/12 05:14:41;;;;;;;4.57;2.80;;;;;;;9.34;100.00;99176.78;5003702;28;20707;-51
2022/11/12 05:17:25;;;;;;;4.57;2.72;;;;;;;9.52;100.00;99211.56;5003742;28;20076;-44
2022/11/12 05:20:10;;;;;;;5.45;3.25;;;;;;;9.68;100.00;99226.47;5005619;28;20508;-45
2022/11/12 05:22:55;;;;;;;4.82;2.33;;;;;;;9.68;100.00;99228.25;5006356;28;20068;-44
2022/11/12 05:25:39;;;;;;;5.72;3.00;;;;;;;9.56;100.00;99197.56;5011960;28;20041;-49
2022/11/12 05:28:24;;;;;;;3.40;2.65;;;;;;;9.72;100.00;99229.84;5011159;28;20041;-49
2022/11/12 05:31:08;;;;;;;4.82;2.83;;;;;;;9.74;100.00;99222.81;4999825;28;20056;-49
2022/11/12 05:33:52;;;;;;;4.10;2.30;;;;;;;9.78;100.00;99242.59;5010667;28;20049;-49
2022/11/12 05:36:37;;;;;;;4.95;3.13;;;;;;;9.80;100.00;99230.38;5010987;28;20042;-47
2022/11/12 05:39:21;;;;;;;3.90;2.78;;;;;;;9.82;100.00;99218.19;5005922;28;20128;-48
2022/11/12 05:42:06;;;;;;;5.88;3.13;;;;;;;9.88;100.00;99232.69;5010842;28;20120;-47
2022/11/12 05:44:50;;;;;;;3.33;2.30;;;;;;;9.81;100.00;99207.84;5010456;28;20098;-51
2022/11/12 05:47:34;;;;;;;5.38;3.00;;;;;;;9.90;100.00;99225.66;5012095;28;20108;-48
2022/11/12 05:50:19;;;;;;;4.50;2.70;;;;;;;9.87;100.00;99220.59;5011790;28;20397;-51
2022/11/12 05:53:03;;;;;;;4.10;2.42;;;;;;;9.86;100.00;99209.38;5004292;28;20050;-49
2022/11/12 05:55:48;;;;;;;3.03;2.30;;;;;;;9.89;100.00;99224.00;5011121;28;20041;-51
2022/11/12 05:58:32;;;;;;;3.92;2.55;;;;;;;9.89;100.00;99227.41;5012192;28;20042;-47
2022/11/12 06:01:17;;;;;;;4.05;2.20;;;;;;;9.95;100.00;99227.19;5024688;28;20064;-51
2022/11/12 06:04:01;;;;;;;2.95;2.30;;;;;;;9.98;100.00;99224.47;5008087;28;20042;-47
2022/11/12 06:06:45;;;;;;;4.30;1.35;;;;;;;9.99;100.00;99233.97;5002049;28;20048;-52
2022/11/12 06:09:30;;;;;;;3.28;2.08;;;;;;;10.03;100.00;99217.34;5009185;28;20047;-54
2022/11/12 06:12:15;;;;;;;2.45;1.95;;;;;;;10.09;100.00;99216.25;5009222;28;20041;-49
2022/11/12 06:14:59;;;;;;;2.70;1.48;;;;;;;10.08;100.00;99201.59;5004682;28;20127;-50
2022/11/12 06:17:44;;;;;;;3.28;2.17;;;;;;;10.12;100.00;99223.91;4990522;28;20344;-53
2022/11/12 06:20:28;;;;;;;5.68;2.47;;;;;;;10.13;100.00;99200.50;4997617;28;20053;-49
2022/11/12 06:23:13;;;;;;;3.42;2.33;;;;;;;10.03;100.00;99157.63;5009555;28;20583;-48
2022/11/12 06:25:57;;;;;;;4.35;1.95;;;;;;;10.20;100.00;99194.16;5010147;28;20424;-52
2022/11/12 06:28:42;;;;;;;3.08;2.20;;;;;;;10.21;100.00;99205.41;5009266;28;20045;-49
2022/11/12 06:31:26;;;;;;;2.85;2.10;;;;;;;10.27;100.00;99204.31;5011691;28;20119;-54
2022/11/12 06:34:11;;;;;;;5.63;1.95;;;;;;;10.23;100.00;99189.75;5018172;28;20591;-55
2022/11/12 06:36:55;;;;;;;4.30;2.10;;;;;;;10.31;100.00;99204.09;5006445;28;20048;-51
2022/11/12 06:39:40;;;;;;;4.50;1.88;;;;;;;10.22;100.00;99186.31;4993907;28;20585;-58
2022/11/12 06:42:24;;;;;;;2.58;1.58;;;;;;;10.34;100.00;99206.59;4995756;28;20394;-53
2022/11/12 06:45:09;;;;;;;3.13;2.03;;;;;;;10.32;100.00;99191.97;4996695;28;20045;-49
2022/11/12 06:47:58;;;;;;;2.47;1.63;;;;;;;10.31;100.00;99174.72;5003647;28;20509;-53
2022/11/12 06:50:42;;;;;;;4.65;2.03;;;;;;;10.18;100.00;99167.41;4993751;28;20053;-52
2022/11/12 06:53:27;;;;;;;3.20;1.92;;;;;;;10.10;100.00;99132.25;5027389;28;20556;-50
2022/11/12 06:56:13;;;;;;;4.20;1.70;;;;;;;10.31;100.00;99166.91;4990216;28;20042;-52
2022/11/12 06:58:58;;;;;;;3.03;2.03;;;;;;;10.33;100.00;99165.94;5023174;28;20129;-54
2022/11/12 07:01:43;;;;;;;4.47;1.80;;;;;;;10.33;100.00;99165.09;5009714;28;20041;-52
2022/11/12 07:04:28;;;;;;;3.45;1.70;;;;;;;10.31;100.00;99146.13;5009429;28;20073;-49
2022/11/12 07:07:12;;;;;;;3.10;1.33;;;;;;;10.35;100.00;99152.88;4996241;28;20042;-49
2022/11/12 07:09:58;;;;;;;3.47;1.70;;;;;;;10.32;100.00;99138.25;5012158;28;20540;-49
2022/11/12 07:12:42;;;;;;;2.20;1.60;;;;;;;10.39;100.00;99134.50;4994813;28;20038;-50
2022/11/12 07:15:27;;;;;;;1.30;1.15;;;;;;;10.24;100.00;99100.53;5005363;28;20033;-48
2022/11/12 07:18:12;;;;;;;1.45;1.17;;;;;;;10.37;100.00;99112.06;5010022;28;20038;-50
2022/11/12 07:20:58;;;;;;;1.85;1.00;;;;;;;10.37;100.00;99128.50;4995440;28;20069;-50
2022/11/12 07:23:43;;;;;;;2.15;1.20;;;;;;;10.34;100.00;99112.22;5010909;28;20034;-47
2022/11/12 07:26:28;;;;;;;2.00;1.08;;;;;;;10.47;100.00;99102.97;4985946;28;20081;-51
2022/11/12 07:29:12;;;;;;;2.95;1.25;;;;;;;10.36;100.00;99077.47;4990417;28;20050;-49
2022/11/12 07:31:56;;;;;;;2.47;1.20;;;;;;;10.54;100.00;99099.22;5003182;28;20046;-47
2022/11/12 07:34:41;;;;;;;1.60;1.30;;;;;;;10.60;100.00;99104.16;4990233;28;20704;-51
2022/11/12 07:37:26;;;;;;;1.58;1.23;;;;;;;10.56;100.00;99089.59;4981053;28;20130;-54
2022/11/12 07:40:10;;;;;;;1.30;1.00;;;;;;;10.52;100.00;99090.66;5002615;28;20044;-47
2022/11/12 07:42:55;;;;;;;0.88;0.70;;;;;;;10.54;100.00;99102.66;5008818;28;20509;-49
2022/11/12 07:45:39;;;;;;;2.70;1.30;;;;;;;10.45;100.00;99066.69;4999942;28;20163;-50
2022/11/12 07:48:23;;;;;;;6.07;1.15;;;;;;;10.63;100.00;99080.59;5007397;28;20568;-49
2022/11/12 07:51:21;;;;;;;3.13;1.40;;;;;;;10.68;100.00;99103.81;5008278;28;20191;-46
2022/11/12 07:54:05;;;;;;;2.08;0.90;;;;;;;10.53;100.00;99054.19;5007336;28;20595;-51
2022/11/12 07:56:49;;;;;;;2.15;1.33;;;;;;;10.72;100.00;99066.38;5008028;28;20100;-46
2022/11/12 07:59:33;;;;;;;0.77;0.70;;;;;;;10.73;100.00;99084.47;5010578;28;20524;-52
2022/11/12 08:02:18;;;;;;;3.38;1.50;;;;;;;10.71;100.00;99083.72;4992970;28;20054;-49
2022/11/12 08:05:03;;;;;;;1.60;1.10;;;;;;;10.81;100.00;99079.78;5007573;28;20525;-52
2022/11/12 08:07:48;;;;;;;2.88;1.40;;;;;;;10.81;100.00;99073.75;4992971;28;20124;-49
2022/11/12 08:10:32;;;;;;;2.25;0.90;;;;;;;10.82;100.00;99058.09;4998650;28;20088;-46
2022/11/12 08:13:17;;;;;;;4.78;1.50;;;;;;;10.78;100.00;99046.13;5007275;28;20096;-52
2022/11/12 08:16:01;;;;;;;0.90;0.80;;;;;;;10.79;100.00;99049.56;5008151;28;20046;-49
2022/11/12 08:18:46;;;;;;;1.63;1.17;;;;;;;10.78;100.00;99033.13;5009519;28;20100;-47
2022/11/12 08:21:30;;;;;;;1.55;1.00;;;;;;;10.87;100.00;99037.91;5008381;28;20510;-48
2022/11/12 08:24:15;;;;;;;0.90;0.80;;;;;;;10.80;100.00;99022.66;5013471;28;20046;-54
2022/11/12 08:27:00;;;;;;;1.75;1.05;;;;;;;10.74;100.00;99022.94;5024665;28;20045;-54
2022/11/12 08:29:45;;;;;;;0.68;0.50;;;;;;;10.68;100.00;99038.84;5008744;28;20121;-48
2022/11/12 08:32:29;;;;;;;1.08;0.90;;;;;;;10.59;100.00;98996.72;5006751;28;20046;-53
2022/11/12 08:35:13;;;;;;;1.00;0.90;;;;;;;10.59;100.00;98998.47;4994795;28;20057;-45
2022/11/12 08:38:09;;;;;;;1.63;1.00;;;;;;;10.55;100.00;99015.13;5007476;28;20064;-50
2022/11/12 08:40:53;;;;;;;2.00;1.13;;;;;;;10.43;100.00;98966.28;5004087;28;20424;-47
2022/11/12 08:43:40;;;;;;;1.92;0.88;;;;;;;10.68;100.00;98999.84;5006722;28;20072;-49
2022/11/12 08:46:25;;;;;;;0.73;0.70;;;;;;;10.45;100.00;98949.75;5005049;28;20045;-47
2022/11/12 08:49:09;;;;;;;3.38;1.25;;;;;;;10.69;100.00;98991.09;4990114;28;20053;-53
2022/11/12 08:51:53;;;;;;;1.67;1.13;;;;;;;10.59;100.00;98990.69;4988718;28;20048;-48
2022/11/12 08:54:37;;;;;;;1.95;1.17;;;;;;;10.63;100.00;98979.22;5007568;28;20056;-51
2022/11/12 08:57:21;;;;;;;1.30;0.80;;;;;;;10.66;100.00;98973.91;5009045;28;20038;-49
2022/11/12 09:00:06;;;;;;;1.38;0.70;;;;;;;10.56;100.00;98950.09;5012678;28;20046;-52
2022/11/12 09:02:51;;;;;;;3.83;1.10;;;;;;;10.61;100.00;98944.69;5011916;28;20048;-48
2022/11/12 09:05:35;;;;;;;1.67;0.70;;;;;;;10.59;100.00;98944.75;5012192;28;20042;-47
2022/11/12 09:08:22;;;;;;;1.13;0.70;;;;;;;10.43;100.00;98919.53;5012575;28;20076;-52
2022/11/12 09:11:07;;;;;;;3.22;1.10;;;;;;;10.52;100.00;98945.94;5012219;28;20048;-47
2022/11/12 09:13:52;;;;;;;1.60;0.82;;;;;;;10.39;100.00;98908.44;5011628;28;20433;-47
2022/11/12 09:16:37;;;;;;;2.33;1.00;;;;;;;10.56;100.00;98918.06;5019096;28;20050;-50
2022/11/12 09:19:21;;;;;;;1.00;0.70;;;;;;;10.61;100.00;98913.50;5007358;28;20038;-49
2022/11/12 09:22:06;;;;;;;1.17;0.88;;;;;;;10.57;100.00;98904.16;5016155;28;20076;-48
2022/11/12 09:24:50;;;;;;;1.27;0.70;;;;;;;10.53;100.00;98900.00;5020476;28;20096;-50
2022/11/12 09:27:34;;;;;;;1.00;0.70;;;;;;;10.49;100.00;98888.91;5010246;28;20061;-52
2022/11/12 09:30:19;;;;;;;0.60;0.60;;;;;;;10.51;100.00;98878.44;5010218;28;20038;-48
2022/11/12 09:33:04;;;;;;;1.58;1.02;;;;;;;10.30;100.00;98830.94;5019590;28;20042;-51
2022/11/12 09:35:49;;;;;;;1.63;1.20;;;;;;;10.57;100.00;98872.97;5011250;28;20048;-50
2022/11/12 09:38:33;;;;;;;1.38;0.73;;;;;;;10.51;100.00;98849.88;5001282;28;20077;-46
2022/11/12 09:41:23;;;;;;;1.52;0.82;;;;;;;10.61;100.00;98857.16;5030961;28;20056;-43
2022/11/12 09:44:16;;;;;;;1.90;1.00;;;;;;;10.67;100.00;98860.38;5017063;28;20041;-50
2022/11/12 09:47:08;;;;;;;1.75;0.80;;;;;;;10.64;100.00;98837.94;5016984;28;20535;-49
2022/11/12 09:50:07;;;;;;;3.28;0.77;;;;;;;10.66;100.00;98838.72;5014232;28;20050;-49
2022/11/12 09:53:00;;;;;;;0.93;0.82;;;;;;;10.72;100.00;98832.41;5024913;28;20088;-49
2022/11/12 09:55:47;;;;;;;3.58;0.60;;;;;;;10.81;100.00;98834.53;5007810;28;20065;-47
2022/11/12 09:58:31;;;;;;;0.70;0.60;;;;;;;10.83;100.00;98811.91;5000109;28;20056;-48
2022/11/12 10:01:16;;;;;;;2.03;0.90;;;;;;;10.80;100.00;98823.31;5014014;28;20038;-45
2022/11/12 10:04:19;;;;;;;2.30;0.60;;;;;;;10.82;100.00;98807.63;5011034;28;20445;-49
2022/11/12 10:07:22;;;;;;;2.22;1.05;;;;;;;10.85;100.00;98808.31;5008203;28;20037;-50
2022/11/12 10:10:41;;;;;;;3.35;1.20;;;;;;;10.88;100.00;98800.38;5009118;28;20131;-50
2022/11/12 10:14:03;;;;;;;0.98;0.93;;;;;;;10.91;100.00;98797.59;5019882;28;20052;-48
2022/11/12 10:17:11;;;;;;;2.60;1.00;;;;;;;10.89;100.00;98799.44;5010129;28;20041;-47
2022/11/12 10:19:56;;;;;;;0.98;0.60;;;;;;;10.90;100.00;98801.13;5004070;28;20045;-48
2022/11/12 10:22:57;;;;;;;1.98;1.10;;;;;;;10.95;100.00;98793.94;5013691;28;20449;-46
2022/11/12 10:25:43;;;;;;;0.93;0.75;;;;;;;11.00;100.00;98799.75;5009858;28;20060;-49
2022/11/12 10:28:29;;;;;;;2.22;0.80;;;;;;;10.99;100.00;98805.03;4995679;28;20550;-48
2022/11/12 10:31:18;;;;;;;0.82;0.70;;;;;;;11.01;100.00;98787.59;5011610;28;20132;-51
2022/11/12 10:34:12;;;;;;;3.30;0.85;;;;;;;11.04;100.00;98790.88;5008460;28;20092;-46
2022/11/12 10:37:21;;;;;;;1.25;0.60;;;;;;;10.89;100.00;98760.44;5001695;28;20095;-48
2022/11/12 10:40:23;;;;;;;2.65;0.90;;;;;;;11.00;100.00;98786.75;5019517;28;20046;-49
2022/11/12 10:43:17;;;;;;;1.30;0.60;;;;;;;10.97;100.00;98792.13;4995909;28;20101;-50
2022/11/12 10:46:30;;;;;;;1.50;1.00;;;;;;;10.92;100.00;98770.69;5008358;28;20087;-50
2022/11/12 10:49:15;;;;;;;4.28;1.10;;;;;;;10.89;100.00;98755.22;5008499;28;20081;-48
2022/11/12 10:52:00;;;;;;;2.65;1.10;;;;;;;10.75;100.00;98725.66;5008627;28;20548;-50
2022/11/12 10:54:44;;;;;;;1.35;0.98;;;;;;;10.95;100.00;98757.53;4991509;28;20056;-48
2022/11/12 10:57:28;;;;;;;1.45;0.80;;;;;;;10.90;100.00;98761.28;4998798;28;20137;-49
2022/11/12 11:00:13;;;;;;;1.20;0.90;;;;;;;10.97;100.00;98760.06;5011060;28;20487;-48
2022/11/12 11:02:59;;;;;;;2.15;0.90;;;;;;;10.78;100.00;98721.13;5010695;28;20146;-48
2022/11/12 11:06:06;;;;;;;2.20;1.00;;;;;;;10.87;100.00;98741.47;5005880;28;20049;-47
2022/11/12 11:08:52;;;;;;;1.30;0.90;;;;;;;10.87;100.00;98725.03;5008990;28;20033;-47
2022/11/12 11:11:37;;;;;;;1.15;0.75;;;;;;;10.78;100.00;98710.72;5008241;28;20076;-45
2022/11/12 11:14:21;;;;;;;2.28;0.85;;;;;;;10.75;100.00;98716.09;4991092;28;20053;-46
2022/11/12 11:17:12;;;;;;;0.57;0.57;;;;;;;10.73;100.00;98715.31;5006368;28;20116;-48
2022/11/12 11:19:57;;;;;;;1.02;0.70;;;;;;;10.67;100.00;98683.63;5002897;28;20042;-50
2022/11/12 11:22:44;;;;;;;2.65;1.00;;;;;;;10.67;100.00;98679.25;5008079;28;20115;-47
2022/11/12 11:25:32;;;;;;;1.23;0.77;;;;;;;10.66;100.00;98685.38;5022449;28;20056;-49
2022/11/12 11:28:16;;;;;;;1.17;1.05;;;;;;;10.62;100.00;98668.25;5006969;28;20537;-49
2022/11/12 11:31:16;;;;;;;1.10;0.70;;;;;;;10.61;100.00;98666.56;5022813;28;20053;-48
2022/11/12 11:34:23;;;;;;;1.35;1.02;;;;;;;10.60;100.00;98641.50;5007359;28;20184;-46
2022/11/12 11:37:27;;;;;;;4.03;1.08;;;;;;;10.58;100.00;98641.56;5002503;28;20046;-48
2022/11/12 11:40:20;;;;;;;1.00;0.47;;;;;;;10.56;100.00;98627.81;5012291;28;20467;-50
2022/11/12 11:43:46;;;;;;;7.10;1.10;;;;;;;10.55;100.00;98631.34;5008421;28;20046;-47
2022/11/12 11:46:55;;;;;;;0.90;0.57;;;;;;;10.54;100.00;98616.66;4993686;28;20622;-53
2022/11/12 11:49:51;;;;;;;1.02;0.60;;;;;;;10.41;100.00;98591.38;5006008;28;20057;-49
2022/11/12 11:52:46;;;;;;;2.13;1.10;;;;;;;10.54;100.00;98613.22;5000564;28;20053;-51
2022/11/12 11:55:33;;;;;;;0.80;0.60;;;;;;;10.54;100.00;98605.41;5007871;28;20061;-46
2022/11/12 11:58:57;;;;;;;1.48;0.70;;;;;;;10.51;100.00;98590.00;5004859;28;20409;-48
2022/11/12 12:02:07;;;;;;;0.70;0.50;;;;;;;10.47;100.00;98585.84;5021800;28;20053;-46
2022/11/12 12:05:00;;;;;;;0.82;0.70;;;;;;;10.47;100.00;98585.84;5009579;28;20413;-51
2022/11/12 12:07:50;;;;;;;2.10;1.08;;;;;;;10.49;100.00;98586.63;4995242;28;20468;-50
2022/11/12 12:11:06;;;;;;;4.15;1.10;;;;;;;10.39;100.00;98573.28;5009402;28;20037;-50
2022/11/12 12:14:12;;;;;;;1.00;0.60;;;;;;;10.45;100.00;98570.38;5006493;28;20076;-48
2022/11/12 12:16:59;;;;;;;1.67;1.10;;;;;;;10.45;100.00;98566.91;4994707;28;20074;-50
2022/11/12 12:20:16;;;;;;;0.93;0.75;;;;;;;10.42;100.00;98557.50;4992428;28;20089;-48
2022/11/12 12:23:27;;;;;;;1.25;0.80;;;;;;;10.43;100.00;98563.56;4988817;28;20061;-50
2022/11/12 12:27:02;;;;;;;1.40;0.57;;;;;;;10.42;100.00;98565.31;5005640;28;20137;-50
2022/11/12 12:29:52;;;;;;;0.60;0.52;;;;;;;10.39;100.00;98543.84;4996027;28;20440;-49
2022/11/12 12:32:40;;;;;;;1.30;0.77;;;;;;;10.40;100.00;98538.59;5007097;28;20034;-51
2022/11/12 12:36:13;;;;;;;1.88;1.20;;;;;;;10.30;100.00;98527.00;4996342;28;20495;-48
2022/11/12 12:39:13;;;;;;;2.03;0.80;;;;;;;10.44;100.00;98537.50;5025227;28;20049;-47
2022/11/12 12:42:11;;;;;;;1.63;0.80;;;;;;;10.46;100.00;98530.47;5011463;28;20605;-49
2022/11/12 12:45:03;;;;;;;4.78;1.10;;;;;;;10.39;100.00;98500.53;5008782;28;20136;-53
2022/11/12 12:47:48;;;;;;;1.52;0.55;;;;;;;10.52;100.00;98504.13;5006080;28;20042;-47
2022/11/12 12:50:36;;;;;;;3.38;0.90;;;;;;;10.55;100.00;98522.19;5006899;28;20609;-48
2022/11/12 12:53:24;;;;;;;1.65;0.55;;;;;;;10.60;100.00;98494.19;5024385;28;20041;-49
2022/11/12 12:56:14;;;;;;;1.73;0.70;;;;;;;10.66;100.00;98490.44;5006935;28;20056;-49
2022/11/12 12:59:02;;;;;;;1.30;0.80;;;;;;;10.66;100.00;98489.59;5011983;28;20041;-49
2022/11/12 13:02:01;;;;;;;0.87;0.63;;;;;;;10.72;100.00;98471.06;5009406;28;20048;-49
2022/11/12 13:04:48;;;;;;;0.95;0.50;;;;;;;10.76;100.00;98494.22;5012970;28;20041;-48
2022/11/12 13:07:44;;;;;;;1.17;0.90;;;;;;;10.66;100.00;98459.25;5010697;28;20092;-53
2022/11/12 13:10:38;;;;;;;0.90;0.70;;;;;;;10.80;100.00;98493.13;5010706;28;20046;-52
2022/11/12 13:13:28;;;;;;;3.55;1.02;;;;;;;10.85;100.00;98477.25;5010759;28;20092;-47
2022/11/12 13:16:51;;;;;;;0.50;0.40;;;;;;;10.87;100.00;98488.44;5004887;28;20260;-50
2022/11/12 13:19:46;;;;;;;4.20;0.85;;;;;;;10.92;100.00;98473.41;5012153;28;20038;-47
2022/11/12 13:22:39;;;;;;;1.77;0.85;;;;;;;10.96;100.00;98474.91;5011789;28;20113;-50
2022/11/12 13:25:25;;;;;;;0.75;0.45;;;;;;;10.84;100.00;98471.22;5011137;28;20045;-49
2022/11/12 13:28:10;;;;;;;0.77;0.45;;;;;;;10.97;100.00;98456.63;5010239;28;20137;-53